Angora, Minnesota
Current Conditions -  °F | °C
As of 11:14 PM on Friday 28 Nov 2014 (Local Time) from KCQM Reporting Station
Light Snow Light Snow  
Wind Chill: -14°   Ceiling: NA
Heat Index: -8°   Visibility: 7mi
Dew Point: -10°   Wind: 8mph
Humidity: 86%   Direction: 150°SSE
Pressure: 29.67"   Gusts: NA
Location:  47.77°N, 92.63°W
Report Text: KCQM 290514Z AUTO 15007KT 7SM -SN M08/M10 A2967 RMK AO2
Loading
Personal Weather Stations






























Interactive Weather Map New forecast layout! Learn more

10-Day Weather Forecast

Advertisements
Track Severe Weather on mobile